sensor_id;sensor_type;location;lat;lon;timestamp;temperature;humidity
23475;DHT22;11910;52.086;21.066;2024-01-07T00:01:47;-0.90;99.90
23475;DHT22;11910;52.086;21.066;2024-01-07T00:04:16;-0.90;99.90
23475;DHT22;11910;52.086;21.066;2024-01-07T00:06:42;-0.90;99.90
23475;DHT22;11910;52.086;21.066;2024-01-07T00:09:07;-1.00;99.90
23475;DHT22;11910;52.086;21.066;2024-01-07T00:11:33;-1.00;99.90
23475;DHT22;11910;52.086;21.066;2024-01-07T00:13:58;-1.00;99.90
23475;DHT22;11910;52.086;21.066;2024-01-07T00:16:24;-1.00;99.90
23475;DHT22;11910;52.086;21.066;2024-01-07T00:18:50;-1.00;99.90
23475;DHT22;11910;52.086;21.066;2024-01-07T00:21:15;-1.00;99.90
23475;DHT22;11910;52.086;21.066;2024-01-07T00:23:41;-1.00;99.90
23475;DHT22;11910;52.086;21.066;2024-01-07T00:26:07;-1.00;99.90
23475;DHT22;11910;52.086;21.066;2024-01-07T00:28:33;-1.00;99.90
23475;DHT22;11910;52.086;21.066;2024-01-07T00:30:58;-1.00;99.90
23475;DHT22;11910;52.086;21.066;2024-01-07T00:33:24;-1.00;99.90
23475;DHT22;11910;52.086;21.066;2024-01-07T00:35:49;-1.00;99.90
23475;DHT22;11910;52.086;21.066;2024-01-07T00:38:15;-1.00;99.90
23475;DHT22;11910;52.086;21.066;2024-01-07T00:40:40;-1.00;99.90
23475;DHT22;11910;52.086;21.066;2024-01-07T00:43:06;-1.00;99.90
23475;DHT22;11910;52.086;21.066;2024-01-07T00:45:31;-1.00;99.90
23475;DHT22;11910;52.086;21.066;2024-01-07T00:47:57;-1.00;99.90
23475;DHT22;11910;52.086;21.066;2024-01-07T00:50:23;-1.00;99.90
23475;DHT22;11910;52.086;21.066;2024-01-07T00:52:49;-1.00;99.90
23475;DHT22;11910;52.086;21.066;2024-01-07T00:55:15;-1.10;99.90
23475;DHT22;11910;52.086;21.066;2024-01-07T00:57:40;-1.10;99.90
23475;DHT22;11910;52.086;21.066;2024-01-07T01:00:07;-1.20;99.90
23475;DHT22;11910;52.086;21.066;2024-01-07T01:02:33;-1.10;99.90
23475;DHT22;11910;52.086;21.066;2024-01-07T01:04:59;-1.10;99.90
23475;DHT22;11910;52.086;21.066;2024-01-07T01:07:25;-1.20;99.90
23475;DHT22;11910;52.086;21.066;2024-01-07T01:09:51;-1.30;99.90
23475;DHT22;11910;52.086;21.066;2024-01-07T01:12:16;-1.30;99.90
23475;DHT22;11910;52.086;21.066;2024-01-07T01:14:42;-1.30;99.90
23475;DHT22;11910;52.086;21.066;2024-01-07T01:17:07;-1.30;99.90
23475;DHT22;11910;52.086;21.066;2024-01-07T01:19:33;-1.30;99.90
23475;DHT22;11910;52.086;21.066;2024-01-07T01:21:59;-1.40;99.90
23475;DHT22;11910;52.086;21.066;2024-01-07T01:24:24;-1.40;99.90
23475;DHT22;11910;52.086;21.066;2024-01-07T01:26:50;-1.40;99.90
23475;DHT22;11910;52.086;21.066;2024-01-07T01:29:15;-1.40;99.90
23475;DHT22;11910;52.086;21.066;2024-01-07T01:31:41;-1.40;99.90
23475;DHT22;11910;52.086;21.066;2024-01-07T01:34:07;-1.40;99.90
23475;DHT22;11910;52.086;21.066;2024-01-07T01:36:32;-1.40;99.90
23475;DHT22;11910;52.086;21.066;2024-01-07T01:38:58;-1.40;99.90
23475;DHT22;11910;52.086;21.066;2024-01-07T01:41:23;-1.50;99.90
23475;DHT22;11910;52.086;21.066;2024-01-07T01:43:49;-1.40;99.90
23475;DHT22;11910;52.086;21.066;2024-01-07T01:46:15;-1.50;99.90
23475;DHT22;11910;52.086;21.066;2024-01-07T01:48:41;-1.50;99.90
23475;DHT22;11910;52.086;21.066;2024-01-07T01:51:07;-1.50;99.90
23475;DHT22;11910;52.086;21.066;2024-01-07T01:53:33;-1.50;99.90
23475;DHT22;11910;52.086;21.066;2024-01-07T01:56:01;-1.60;99.90
23475;DHT22;11910;52.086;21.066;2024-01-07T01:58:28;-1.60;99.90
23475;DHT22;11910;52.086;21.066;2024-01-07T02:00:55;-1.60;99.90
23475;DHT22;11910;52.086;21.066;2024-01-07T02:03:20;-1.70;99.90
23475;DHT22;11910;52.086;21.066;2024-01-07T02:05:48;-1.60;99.90
23475;DHT22;11910;52.086;21.066;2024-01-07T02:08:14;-1.60;99.90
23475;DHT22;11910;52.086;21.066;2024-01-07T02:10:40;-1.60;99.90
23475;DHT22;11910;52.086;21.066;2024-01-07T02:13:06;-1.60;99.90
23475;DHT22;11910;52.086;21.066;2024-01-07T02:15:31;-1.60;99.90
23475;DHT22;11910;52.086;21.066;2024-01-07T02:17:57;-1.60;99.90
23475;DHT22;11910;52.086;21.066;2024-01-07T02:20:23;-1.70;99.90
23475;DHT22;11910;52.086;21.066;2024-01-07T02:22:49;-1.70;99.90
23475;DHT22;11910;52.086;21.066;2024-01-07T02:25:14;-1.70;99.90
23475;DHT22;11910;52.086;21.066;2024-01-07T02:27:40;-1.80;99.90
23475;DHT22;11910;52.086;21.066;2024-01-07T02:30:06;-1.90;99.90
23475;DHT22;11910;52.086;21.066;2024-01-07T02:32:32;-1.90;99.90
23475;DHT22;11910;52.086;21.066;2024-01-07T02:35:00;-1.90;99.90
23475;DHT22;11910;52.086;21.066;2024-01-07T02:37:26;-1.90;99.90
23475;DHT22;11910;52.086;21.066;2024-01-07T02:39:51;-1.90;99.90
23475;DHT22;11910;52.086;21.066;2024-01-07T02:42:17;-2.00;99.90
23475;DHT22;11910;52.086;21.066;2024-01-07T02:44:42;-1.90;99.90
23475;DHT22;11910;52.086;21.066;2024-01-07T02:47:08;-1.90;99.90
23475;DHT22;11910;52.086;21.066;2024-01-07T02:49:33;-2.00;99.90
23475;DHT22;11910;52.086;21.066;2024-01-07T02:51:59;-1.90;99.90
23475;DHT22;11910;52.086;21.066;2024-01-07T02:54:25;-1.90;99.90
23475;DHT22;11910;52.086;21.066;2024-01-07T02:56:50;-1.90;99.90
23475;DHT22;11910;52.086;21.066;2024-01-07T02:59:16;-1.90;99.90
23475;DHT22;11910;52.086;21.066;2024-01-07T03:01:42;-2.00;99.90
23475;DHT22;11910;52.086;21.066;2024-01-07T03:04:12;-1.90;99.90
23475;DHT22;11910;52.086;21.066;2024-01-07T03:06:37;-1.90;99.90
23475;DHT22;11910;52.086;21.066;2024-01-07T03:09:03;-1.90;99.90
23475;DHT22;11910;52.086;21.066;2024-01-07T03:11:29;-1.90;99.90
23475;DHT22;11910;52.086;21.066;2024-01-07T03:13:55;-1.90;99.90
23475;DHT22;11910;52.086;21.066;2024-01-07T03:16:22;-1.90;99.90
23475;DHT22;11910;52.086;21.066;2024-01-07T03:18:48;-1.80;99.90
23475;DHT22;11910;52.086;21.066;2024-01-07T03:21:21;-1.90;99.90
23475;DHT22;11910;52.086;21.066;2024-01-07T03:23:47;-1.80;99.90
23475;DHT22;11910;52.086;21.066;2024-01-07T03:26:13;-1.90;99.90
23475;DHT22;11910;52.086;21.066;2024-01-07T03:28:39;-1.80;99.90
23475;DHT22;11910;52.086;21.066;2024-01-07T03:31:09;-1.80;99.90
23475;DHT22;11910;52.086;21.066;2024-01-07T03:33:37;-1.80;99.90
23475;DHT22;11910;52.086;21.066;2024-01-07T03:36:10;-1.80;99.90
23475;DHT22;11910;52.086;21.066;2024-01-07T03:38:37;-1.80;99.90
23475;DHT22;11910;52.086;21.066;2024-01-07T03:41:03;-1.80;99.90
23475;DHT22;11910;52.086;21.066;2024-01-07T03:43:29;-1.90;99.90
23475;DHT22;11910;52.086;21.066;2024-01-07T03:45:54;-1.90;99.90
23475;DHT22;11910;52.086;21.066;2024-01-07T03:48:20;-2.00;99.90
23475;DHT22;11910;52.086;21.066;2024-01-07T03:50:45;-2.00;99.90
23475;DHT22;11910;52.086;21.066;2024-01-07T03:53:12;-2.00;99.90
23475;DHT22;11910;52.086;21.066;2024-01-07T03:55:37;-2.00;99.90
23475;DHT22;11910;52.086;21.066;2024-01-07T03:58:03;-2.00;99.90
23475;DHT22;11910;52.086;21.066;2024-01-07T04:00:29;-2.00;99.90
23475;DHT22;11910;52.086;21.066;2024-01-07T04:02:55;-2.00;99.90
23475;DHT22;11910;52.086;21.066;2024-01-07T04:05:20;-2.10;99.90
23475;DHT22;11910;52.086;21.066;2024-01-07T04:07:46;-2.10;99.90
23475;DHT22;11910;52.086;21.066;2024-01-07T04:10:11;-2.20;99.90
23475;DHT22;11910;52.086;21.066;2024-01-07T04:12:37;-2.20;99.90
23475;DHT22;11910;52.086;21.066;2024-01-07T04:15:04;-2.20;99.90
23475;DHT22;11910;52.086;21.066;2024-01-07T04:17:29;-2.20;99.90
23475;DHT22;11910;52.086;21.066;2024-01-07T04:19:55;-2.20;99.90
23475;DHT22;11910;52.086;21.066;2024-01-07T04:22:21;-2.20;99.90
23475;DHT22;11910;52.086;21.066;2024-01-07T04:24:46;-2.20;99.90
23475;DHT22;11910;52.086;21.066;2024-01-07T04:27:12;-2.30;99.90
23475;DHT22;11910;52.086;21.066;2024-01-07T04:29:37;-2.30;99.90
23475;DHT22;11910;52.086;21.066;2024-01-07T04:32:03;-2.30;99.90
23475;DHT22;11910;52.086;21.066;2024-01-07T04:34:29;-2.30;99.90
23475;DHT22;11910;52.086;21.066;2024-01-07T04:36:54;-2.40;99.90
23475;DHT22;11910;52.086;21.066;2024-01-07T04:39:20;-2.40;99.90
23475;DHT22;11910;52.086;21.066;2024-01-07T04:41:46;-2.50;99.90
23475;DHT22;11910;52.086;21.066;2024-01-07T04:44:11;-2.50;99.90
23475;DHT22;11910;52.086;21.066;2024-01-07T04:46:40;-2.50;99.90
23475;DHT22;11910;52.086;21.066;2024-01-07T04:49:06;-2.40;99.90
23475;DHT22;11910;52.086;21.066;2024-01-07T04:51:35;-2.50;99.90
23475;DHT22;11910;52.086;21.066;2024-01-07T04:54:02;-2.50;99.90
23475;DHT22;11910;52.086;21.066;2024-01-07T04:56:27;-2.50;99.90
23475;DHT22;11910;52.086;21.066;2024-01-07T04:58:53;-2.60;99.90
23475;DHT22;11910;52.086;21.066;2024-01-07T05:01:18;-2.60;99.90
23475;DHT22;11910;52.086;21.066;2024-01-07T05:03:44;-2.60;99.90
23475;DHT22;11910;52.086;21.066;2024-01-07T05:06:10;-2.50;99.90
23475;DHT22;11910;52.086;21.066;2024-01-07T05:08:36;-2.60;99.90
23475;DHT22;11910;52.086;21.066;2024-01-07T05:11:03;-2.60;99.90
23475;DHT22;11910;52.086;21.066;2024-01-07T05:13:28;-2.50;99.90
23475;DHT22;11910;52.086;21.066;2024-01-07T05:15:54;-2.50;99.90
23475;DHT22;11910;52.086;21.066;2024-01-07T05:18:21;-2.50;99.90
23475;DHT22;11910;52.086;21.066;2024-01-07T05:20:47;-2.50;99.90
23475;DHT22;11910;52.086;21.066;2024-01-07T05:23:13;-2.50;99.90
23475;DHT22;11910;52.086;21.066;2024-01-07T05:25:38;-2.50;99.90
23475;DHT22;11910;52.086;21.066;2024-01-07T05:28:04;-2.50;99.90
23475;DHT22;11910;52.086;21.066;2024-01-07T05:30:30;-2.50;99.90
23475;DHT22;11910;52.086;21.066;2024-01-07T05:32:55;-2.50;99.90
23475;DHT22;11910;52.086;21.066;2024-01-07T05:35:21;-2.40;99.90
23475;DHT22;11910;52.086;21.066;2024-01-07T05:37:46;-2.40;99.90
23475;DHT22;11910;52.086;21.066;2024-01-07T05:40:12;-2.50;99.90
23475;DHT22;11910;52.086;21.066;2024-01-07T05:42:38;-2.50;99.90
23475;DHT22;11910;52.086;21.066;2024-01-07T05:45:03;-2.50;99.90
23475;DHT22;11910;52.086;21.066;2024-01-07T05:47:29;-2.50;99.90
23475;DHT22;11910;52.086;21.066;2024-01-07T05:49:55;-2.40;99.90
23475;DHT22;11910;52.086;21.066;2024-01-07T05:52:21;-2.40;99.90
23475;DHT22;11910;52.086;21.066;2024-01-07T05:54:46;-2.50;99.90
23475;DHT22;11910;52.086;21.066;2024-01-07T05:57:12;-2.50;99.90
23475;DHT22;11910;52.086;21.066;2024-01-07T05:59:38;-2.40;99.90
23475;DHT22;11910;52.086;21.066;2024-01-07T06:02:03;-2.50;99.90
23475;DHT22;11910;52.086;21.066;2024-01-07T06:04:29;-2.50;99.90
23475;DHT22;11910;52.086;21.066;2024-01-07T06:06:55;-2.50;99.90
23475;DHT22;11910;52.086;21.066;2024-01-07T06:09:20;-2.50;99.90
23475;DHT22;11910;52.086;21.066;2024-01-07T06:11:46;-2.50;99.90
23475;DHT22;11910;52.086;21.066;2024-01-07T06:14:12;-2.50;99.90
23475;DHT22;11910;52.086;21.066;2024-01-07T06:16:37;-2.50;99.90
23475;DHT22;11910;52.086;21.066;2024-01-07T06:19:03;-2.50;99.90
23475;DHT22;11910;52.086;21.066;2024-01-07T06:21:29;-2.50;99.90
23475;DHT22;11910;52.086;21.066;2024-01-07T06:23:54;-2.50;99.90
23475;DHT22;11910;52.086;21.066;2024-01-07T06:26:20;-2.50;99.90
23475;DHT22;11910;52.086;21.066;2024-01-07T06:28:46;-2.50;99.90
23475;DHT22;11910;52.086;21.066;2024-01-07T06:31:11;-2.50;99.90
23475;DHT22;11910;52.086;21.066;2024-01-07T06:33:37;-2.50;99.90
23475;DHT22;11910;52.086;21.066;2024-01-07T06:36:03;-2.40;99.90
23475;DHT22;11910;52.086;21.066;2024-01-07T06:38:29;-2.40;99.90
23475;DHT22;11910;52.086;21.066;2024-01-07T06:40:55;-2.40;99.90
23475;DHT22;11910;52.086;21.066;2024-01-07T06:43:21;-2.40;99.90
23475;DHT22;11910;52.086;21.066;2024-01-07T06:45:46;-2.40;99.90
23475;DHT22;11910;52.086;21.066;2024-01-07T06:48:12;-2.40;99.90
23475;DHT22;11910;52.086;21.066;2024-01-07T06:50:37;-2.40;99.90
23475;DHT22;11910;52.086;21.066;2024-01-07T06:53:03;-2.40;99.90
23475;DHT22;11910;52.086;21.066;2024-01-07T06:55:29;-2.30;99.90
23475;DHT22;11910;52.086;21.066;2024-01-07T06:57:54;-2.30;99.90
23475;DHT22;11910;52.086;21.066;2024-01-07T07:00:20;-2.40;99.90
23475;DHT22;11910;52.086;21.066;2024-01-07T07:02:46;-2.30;99.90
23475;DHT22;11910;52.086;21.066;2024-01-07T07:05:11;-2.30;99.90
23475;DHT22;11910;52.086;21.066;2024-01-07T07:07:37;-2.30;99.90
23475;DHT22;11910;52.086;21.066;2024-01-07T07:10:03;-2.30;99.90
23475;DHT22;11910;52.086;21.066;2024-01-07T07:12:29;-2.30;99.90
23475;DHT22;11910;52.086;21.066;2024-01-07T07:14:54;-2.30;99.90
23475;DHT22;11910;52.086;21.066;2024-01-07T07:17:20;-2.30;99.90
23475;DHT22;11910;52.086;21.066;2024-01-07T07:19:45;-2.20;99.90
23475;DHT22;11910;52.086;21.066;2024-01-07T07:22:11;-2.20;99.90
23475;DHT22;11910;52.086;21.066;2024-01-07T07:24:40;-2.20;99.90
23475;DHT22;11910;52.086;21.066;2024-01-07T07:27:06;-2.20;99.90
23475;DHT22;11910;52.086;21.066;2024-01-07T07:29:32;-2.20;99.90
23475;DHT22;11910;52.086;21.066;2024-01-07T07:31:57;-2.20;99.90
23475;DHT22;11910;52.086;21.066;2024-01-07T07:34:23;-2.20;99.90
23475;DHT22;11910;52.086;21.066;2024-01-07T07:36:48;-2.20;99.90
23475;DHT22;11910;52.086;21.066;2024-01-07T07:39:14;-2.20;99.90
23475;DHT22;11910;52.086;21.066;2024-01-07T07:41:40;-2.10;99.90
23475;DHT22;11910;52.086;21.066;2024-01-07T07:44:05;-2.10;99.90
23475;DHT22;11910;52.086;21.066;2024-01-07T07:46:31;-2.10;99.90
23475;DHT22;11910;52.086;21.066;2024-01-07T07:48:57;-2.00;99.90
23475;DHT22;11910;52.086;21.066;2024-01-07T07:51:23;-2.00;99.90
23475;DHT22;11910;52.086;21.066;2024-01-07T07:53:49;-2.00;99.90
23475;DHT22;11910;52.086;21.066;2024-01-07T07:56:14;-1.90;99.90
23475;DHT22;11910;52.086;21.066;2024-01-07T07:58:40;-1.90;99.90
23475;DHT22;11910;52.086;21.066;2024-01-07T08:01:06;-1.90;99.90
23475;DHT22;11910;52.086;21.066;2024-01-07T08:03:32;-1.90;99.90
23475;DHT22;11910;52.086;21.066;2024-01-07T08:05:58;-1.90;99.90
23475;DHT22;11910;52.086;21.066;2024-01-07T08:08:23;-1.90;99.90
23475;DHT22;11910;52.086;21.066;2024-01-07T08:10:49;-1.90;99.90
23475;DHT22;11910;52.086;21.066;2024-01-07T08:13:15;-1.90;99.90
23475;DHT22;11910;52.086;21.066;2024-01-07T08:15:41;-2.00;99.90
23475;DHT22;11910;52.086;21.066;2024-01-07T08:18:06;-1.90;99.90
23475;DHT22;11910;52.086;21.066;2024-01-07T08:20:32;-1.90;99.90
23475;DHT22;11910;52.086;21.066;2024-01-07T08:22:57;-2.00;99.90
23475;DHT22;11910;52.086;21.066;2024-01-07T08:25:23;-1.90;99.90
23475;DHT22;11910;52.086;21.066;2024-01-07T08:27:49;-1.90;99.90
23475;DHT22;11910;52.086;21.066;2024-01-07T08:30:14;-1.80;99.90
23475;DHT22;11910;52.086;21.066;2024-01-07T08:32:40;-1.90;99.90
23475;DHT22;11910;52.086;21.066;2024-01-07T08:35:06;-1.90;99.90
23475;DHT22;11910;52.086;21.066;2024-01-07T08:37:32;-2.00;99.90
23475;DHT22;11910;52.086;21.066;2024-01-07T08:40:01;-2.00;99.90
23475;DHT22;11910;52.086;21.066;2024-01-07T08:42:27;-1.90;99.90
23475;DHT22;11910;52.086;21.066;2024-01-07T08:44:55;-1.90;99.90
23475;DHT22;11910;52.086;21.066;2024-01-07T08:47:21;-1.90;99.90
23475;DHT22;11910;52.086;21.066;2024-01-07T08:49:46;-1.90;99.90
23475;DHT22;11910;52.086;21.066;2024-01-07T08:52:12;-1.90;99.90
23475;DHT22;11910;52.086;21.066;2024-01-07T08:54:38;-1.90;99.90
23475;DHT22;11910;52.086;21.066;2024-01-07T08:57:03;-1.90;99.90
23475;DHT22;11910;52.086;21.066;2024-01-07T08:59:29;-1.90;99.90
23475;DHT22;11910;52.086;21.066;2024-01-07T09:01:55;-1.90;99.90
23475;DHT22;11910;52.086;21.066;2024-01-07T09:04:20;-1.80;99.90
23475;DHT22;11910;52.086;21.066;2024-01-07T09:06:47;-1.80;99.90
23475;DHT22;11910;52.086;21.066;2024-01-07T09:09:12;-1.80;99.90
23475;DHT22;11910;52.086;21.066;2024-01-07T09:11:38;-1.70;99.90
23475;DHT22;11910;52.086;21.066;2024-01-07T09:14:04;-1.70;99.90
23475;DHT22;11910;52.086;21.066;2024-01-07T09:16:30;-1.70;99.90
23475;DHT22;11910;52.086;21.066;2024-01-07T09:18:55;-1.80;99.90
23475;DHT22;11910;52.086;21.066;2024-01-07T09:21:21;-1.80;99.90
23475;DHT22;11910;52.086;21.066;2024-01-07T09:23:48;-1.80;99.90
23475;DHT22;11910;52.086;21.066;2024-01-07T09:26:14;-1.70;99.90
23475;DHT22;11910;52.086;21.066;2024-01-07T09:28:39;-1.70;99.90
23475;DHT22;11910;52.086;21.066;2024-01-07T09:31:06;-1.70;99.90
23475;DHT22;11910;52.086;21.066;2024-01-07T09:33:32;-1.70;99.90
23475;DHT22;11910;52.086;21.066;2024-01-07T09:35:58;-1.60;99.90
23475;DHT22;11910;52.086;21.066;2024-01-07T09:38:23;-1.60;99.90
23475;DHT22;11910;52.086;21.066;2024-01-07T09:40:51;-1.60;99.90
23475;DHT22;11910;52.086;21.066;2024-01-07T09:43:17;-1.70;99.90
23475;DHT22;11910;52.086;21.066;2024-01-07T09:45:46;-1.60;99.90
23475;DHT22;11910;52.086;21.066;2024-01-07T09:48:12;-1.60;99.90
23475;DHT22;11910;52.086;21.066;2024-01-07T09:50:37;-1.70;99.90
23475;DHT22;11910;52.086;21.066;2024-01-07T09:53:03;-1.70;99.90
23475;DHT22;11910;52.086;21.066;2024-01-07T09:56:02;-1.60;99.90
23475;DHT22;11910;52.086;21.066;2024-01-07T09:58:31;-1.60;99.90
23475;DHT22;11910;52.086;21.066;2024-01-07T10:00:56;-1.50;99.90
23475;DHT22;11910;52.086;21.066;2024-01-07T10:03:22;-1.40;99.90
23475;DHT22;11910;52.086;21.066;2024-01-07T10:05:48;-1.40;99.90
23475;DHT22;11910;52.086;21.066;2024-01-07T10:08:13;-1.40;99.90
23475;DHT22;11910;52.086;21.066;2024-01-07T10:10:39;-1.40;99.90
23475;DHT22;11910;52.086;21.066;2024-01-07T10:13:06;-1.50;99.90
23475;DHT22;11910;52.086;21.066;2024-01-07T10:15:34;-1.50;99.90
23475;DHT22;11910;52.086;21.066;2024-01-07T10:18:04;-1.50;99.90
23475;DHT22;11910;52.086;21.066;2024-01-07T10:20:32;-1.50;99.90
23475;DHT22;11910;52.086;21.066;2024-01-07T10:22:59;-1.50;99.90
23475;DHT22;11910;52.086;21.066;2024-01-07T10:25:24;-1.50;99.90
23475;DHT22;11910;52.086;21.066;2024-01-07T10:27:50;-1.40;99.90
23475;DHT22;11910;52.086;21.066;2024-01-07T10:30:16;-1.40;99.90
23475;DHT22;11910;52.086;21.066;2024-01-07T10:32:42;-1.40;99.90
23475;DHT22;11910;52.086;21.066;2024-01-07T10:35:12;-1.40;99.90
23475;DHT22;11910;52.086;21.066;2024-01-07T10:37:39;-1.40;99.90
23475;DHT22;11910;52.086;21.066;2024-01-07T10:40:07;-1.50;99.90
23475;DHT22;11910;52.086;21.066;2024-01-07T10:42:33;-1.40;99.90
23475;DHT22;11910;52.086;21.066;2024-01-07T10:45:02;-1.50;99.90
23475;DHT22;11910;52.086;21.066;2024-01-07T10:47:30;-1.50;99.90
23475;DHT22;11910;52.086;21.066;2024-01-07T10:49:59;-1.50;99.90
23475;DHT22;11910;52.086;21.066;2024-01-07T10:52:28;-1.50;99.90
23475;DHT22;11910;52.086;21.066;2024-01-07T10:54:56;-1.50;99.90
23475;DHT22;11910;52.086;21.066;2024-01-07T10:57:38;-1.40;99.90
23475;DHT22;11910;52.086;21.066;2024-01-07T11:00:06;-1.40;99.90
23475;DHT22;11910;52.086;21.066;2024-01-07T11:02:40;-1.40;99.90
23475;DHT22;11910;52.086;21.066;2024-01-07T11:10:57;-1.50;99.90
23475;DHT22;11910;52.086;21.066;2024-01-07T11:13:37;-1.50;99.90
23475;DHT22;11910;52.086;21.066;2024-01-07T11:16:09;-1.60;99.90
23475;DHT22;11910;52.086;21.066;2024-01-07T11:18:39;-1.60;99.90
23475;DHT22;11910;52.086;21.066;2024-01-07T11:21:05;-1.70;99.90
23475;DHT22;11910;52.086;21.066;2024-01-07T11:23:32;-1.60;99.90
23475;DHT22;11910;52.086;21.066;2024-01-07T11:26:07;-1.60;99.90
23475;DHT22;11910;52.086;21.066;2024-01-07T11:28:47;-1.60;99.90
23475;DHT22;11910;52.086;21.066;2024-01-07T11:31:18;-1.60;99.90
23475;DHT22;11910;52.086;21.066;2024-01-07T11:33:46;-1.60;99.90
23475;DHT22;11910;52.086;21.066;2024-01-07T11:36:13;-1.60;99.90
23475;DHT22;11910;52.086;21.066;2024-01-07T11:38:49;-1.60;99.90
23475;DHT22;11910;52.086;21.066;2024-01-07T11:41:15;-1.50;99.90
23475;DHT22;11910;52.086;21.066;2024-01-07T11:43:52;-1.50;99.90
23475;DHT22;11910;52.086;21.066;2024-01-07T11:46:18;-1.60;99.90
23475;DHT22;11910;52.086;21.066;2024-01-07T11:48:46;-1.60;99.90
23475;DHT22;11910;52.086;21.066;2024-01-07T11:51:11;-1.60;99.90
23475;DHT22;11910;52.086;21.066;2024-01-07T11:53:37;-1.60;99.90
23475;DHT22;11910;52.086;21.066;2024-01-07T11:56:03;-1.70;99.90
23475;DHT22;11910;52.086;21.066;2024-01-07T11:58:30;-1.60;99.90
23475;DHT22;11910;52.086;21.066;2024-01-07T12:00:56;-1.60;99.90
23475;DHT22;11910;52.086;21.066;2024-01-07T12:03:23;-1.60;99.90
23475;DHT22;11910;52.086;21.066;2024-01-07T12:05:49;-1.60;99.90
23475;DHT22;11910;52.086;21.066;2024-01-07T12:08:15;-1.50;99.90
23475;DHT22;11910;52.086;21.066;2024-01-07T12:10:41;-1.60;99.90
23475;DHT22;11910;52.086;21.066;2024-01-07T12:13:07;-1.70;99.90
23475;DHT22;11910;52.086;21.066;2024-01-07T12:15:34;-1.70;99.90
23475;DHT22;11910;52.086;21.066;2024-01-07T12:17:59;-1.70;99.90
23475;DHT22;11910;52.086;21.066;2024-01-07T12:20:27;-1.70;99.90
23475;DHT22;11910;52.086;21.066;2024-01-07T12:22:56;-1.80;99.90
23475;DHT22;11910;52.086;21.066;2024-01-07T12:25:23;-1.80;99.90
23475;DHT22;11910;52.086;21.066;2024-01-07T12:27:50;-1.80;99.90
23475;DHT22;11910;52.086;21.066;2024-01-07T12:30:19;-1.70;99.90
23475;DHT22;11910;52.086;21.066;2024-01-07T12:32:45;-1.70;99.90
23475;DHT22;11910;52.086;21.066;2024-01-07T12:35:11;-1.70;99.90
23475;DHT22;11910;52.086;21.066;2024-01-07T12:37:37;-1.80;99.90
23475;DHT22;11910;52.086;21.066;2024-01-07T12:40:03;-1.80;99.90
23475;DHT22;11910;52.086;21.066;2024-01-07T12:42:30;-1.90;99.90
23475;DHT22;11910;52.086;21.066;2024-01-07T12:44:55;-1.90;99.90
23475;DHT22;11910;52.086;21.066;2024-01-07T12:47:21;-2.00;99.90
23475;DHT22;11910;52.086;21.066;2024-01-07T12:49:46;-2.00;99.90
23475;DHT22;11910;52.086;21.066;2024-01-07T12:52:12;-2.10;99.90
23475;DHT22;11910;52.086;21.066;2024-01-07T12:54:38;-2.00;99.90
23475;DHT22;11910;52.086;21.066;2024-01-07T12:57:04;-2.10;99.90
23475;DHT22;11910;52.086;21.066;2024-01-07T12:59:30;-2.00;99.90
23475;DHT22;11910;52.086;21.066;2024-01-07T13:01:59;-1.90;99.90
23475;DHT22;11910;52.086;21.066;2024-01-07T13:04:25;-1.90;99.90
23475;DHT22;11910;52.086;21.066;2024-01-07T13:06:51;-2.00;99.90
23475;DHT22;11910;52.086;21.066;2024-01-07T13:09:16;-2.10;99.90
23475;DHT22;11910;52.086;21.066;2024-01-07T13:11:42;-2.00;99.90
23475;DHT22;11910;52.086;21.066;2024-01-07T13:14:07;-2.10;99.90
23475;DHT22;11910;52.086;21.066;2024-01-07T13:16:33;-2.10;99.90
23475;DHT22;11910;52.086;21.066;2024-01-07T13:18:59;-2.00;99.90
23475;DHT22;11910;52.086;21.066;2024-01-07T13:21:24;-1.90;99.90
23475;DHT22;11910;52.086;21.066;2024-01-07T13:23:50;-1.90;99.90
23475;DHT22;11910;52.086;21.066;2024-01-07T13:26:16;-2.00;99.90
23475;DHT22;11910;52.086;21.066;2024-01-07T13:28:42;-1.90;99.90
23475;DHT22;11910;52.086;21.066;2024-01-07T13:31:11;-1.90;99.90
23475;DHT22;11910;52.086;21.066;2024-01-07T13:33:40;-1.90;99.90
23475;DHT22;11910;52.086;21.066;2024-01-07T13:36:06;-2.00;99.90
23475;DHT22;11910;52.086;21.066;2024-01-07T13:38:35;-2.00;99.90
23475;DHT22;11910;52.086;21.066;2024-01-07T13:41:01;-2.00;99.90
23475;DHT22;11910;52.086;21.066;2024-01-07T13:43:26;-2.00;99.90
23475;DHT22;11910;52.086;21.066;2024-01-07T13:45:55;-2.00;99.90
23475;DHT22;11910;52.086;21.066;2024-01-07T13:48:20;-2.10;99.90
23475;DHT22;11910;52.086;21.066;2024-01-07T13:50:46;-2.10;99.90
23475;DHT22;11910;52.086;21.066;2024-01-07T13:53:13;-2.10;99.90
23475;DHT22;11910;52.086;21.066;2024-01-07T13:55:40;-2.20;99.90
23475;DHT22;11910;52.086;21.066;2024-01-07T13:58:05;-2.30;99.90
23475;DHT22;11910;52.086;21.066;2024-01-07T14:00:31;-2.30;99.90
23475;DHT22;11910;52.086;21.066;2024-01-07T14:02:57;-2.30;99.90
23475;DHT22;11910;52.086;21.066;2024-01-07T14:05:23;-2.40;99.90
23475;DHT22;11910;52.086;21.066;2024-01-07T14:07:48;-2.50;99.90
23475;DHT22;11910;52.086;21.066;2024-01-07T14:10:14;-2.50;99.90
23475;DHT22;11910;52.086;21.066;2024-01-07T14:12:40;-2.60;99.90
23475;DHT22;11910;52.086;21.066;2024-01-07T14:15:06;-2.50;99.90
23475;DHT22;11910;52.086;21.066;2024-01-07T14:17:33;-2.60;99.90
23475;DHT22;11910;52.086;21.066;2024-01-07T14:19:59;-2.60;99.90
23475;DHT22;11910;52.086;21.066;2024-01-07T14:22:24;-2.60;99.90
23475;DHT22;11910;52.086;21.066;2024-01-07T14:24:50;-2.60;99.90
23475;DHT22;11910;52.086;21.066;2024-01-07T14:27:16;-2.70;99.90
23475;DHT22;11910;52.086;21.066;2024-01-07T14:29:42;-2.70;99.90
23475;DHT22;11910;52.086;21.066;2024-01-07T14:32:08;-2.70;99.90
23475;DHT22;11910;52.086;21.066;2024-01-07T14:34:38;-2.70;99.90
23475;DHT22;11910;52.086;21.066;2024-01-07T14:37:04;-2.80;99.90
23475;DHT22;11910;52.086;21.066;2024-01-07T14:39:30;-2.80;99.90
23475;DHT22;11910;52.086;21.066;2024-01-07T14:41:55;-2.90;99.90
23475;DHT22;11910;52.086;21.066;2024-01-07T14:44:23;-2.90;99.90
23475;DHT22;11910;52.086;21.066;2024-01-07T14:46:49;-3.00;99.90
23475;DHT22;11910;52.086;21.066;2024-01-07T14:49:15;-3.00;99.90
23475;DHT22;11910;52.086;21.066;2024-01-07T14:51:41;-3.00;99.90
23475;DHT22;11910;52.086;21.066;2024-01-07T14:54:06;-3.00;99.90
23475;DHT22;11910;52.086;21.066;2024-01-07T14:56:32;-3.00;99.90
23475;DHT22;11910;52.086;21.066;2024-01-07T14:58:57;-3.10;99.90
23475;DHT22;11910;52.086;21.066;2024-01-07T15:01:23;-3.20;99.90
23475;DHT22;11910;52.086;21.066;2024-01-07T15:03:49;-3.20;99.90
23475;DHT22;11910;52.086;21.066;2024-01-07T15:06:15;-3.30;99.90
23475;DHT22;11910;52.086;21.066;2024-01-07T15:08:41;-3.30;99.90
23475;DHT22;11910;52.086;21.066;2024-01-07T15:11:08;-3.20;99.90
23475;DHT22;11910;52.086;21.066;2024-01-07T15:13:33;-3.10;99.90
23475;DHT22;11910;52.086;21.066;2024-01-07T15:16:00;-3.10;99.90